createdAt,value
2023-01-09T00:00:51.479Z,97179.94
2023-01-09T00:03:54.058Z,97183.06
2023-01-09T00:06:56.634Z,97176.94
2023-01-09T00:09:59.344Z,97165.94
2023-01-09T00:13:02.208Z,97165.97
2023-01-09T00:16:06.685Z,97159.41
2023-01-09T00:19:09.903Z,97167.63
2023-01-09T00:22:12.423Z,97162.97
2023-01-09T00:25:15.134Z,97151.22
2023-01-09T00:28:17.632Z,97156.97
2023-01-09T00:31:20.816Z,97150.81
2023-01-09T00:34:23.908Z,97150.94
2023-01-09T00:37:26.526Z,97138.91
2023-01-09T00:40:29.034Z,97139.50
2023-01-09T00:43:33.893Z,97151.16
2023-01-09T00:46:39.752Z,97142.00
2023-01-09T00:49:43.095Z,97144.97
2023-01-09T00:52:46.731Z,97129.63
2023-01-09T00:55:49.549Z,97128.53
2023-01-09T00:58:52.526Z,97125.66
2023-01-09T01:01:55.210Z,97122.53
2023-01-09T01:05:16.432Z,97117.88
2023-01-09T01:08:19.684Z,97124.31
2023-01-09T01:11:22.882Z,97121.44
2023-01-09T01:14:25.335Z,97123.63
2023-01-09T01:17:27.891Z,97119.38
2023-01-09T01:20:30.444Z,97115.63
2023-01-09T01:23:32.914Z,97113.72
2023-01-09T01:26:35.412Z,97105.22
2023-01-09T01:29:37.934Z,97087.81
2023-01-09T01:32:40.923Z,97087.66
2023-01-09T01:35:43.423Z,97069.00
2023-01-09T01:38:47.082Z,97070.69
2023-01-09T01:41:49.595Z,97059.59
2023-01-09T01:44:55.128Z,97049.66
2023-01-09T01:48:03.212Z,97041.16
2023-01-09T01:51:06.409Z,97034.81
2023-01-09T01:54:15.184Z,97025.00
2023-01-09T01:57:17.799Z,97018.34
2023-01-09T02:00:23.988Z,97023.38
2023-01-09T02:03:28.404Z,97033.75
2023-01-09T02:06:31.907Z,97020.06
2023-01-09T02:09:34.643Z,97020.38
2023-01-09T02:12:37.096Z,97023.94
2023-01-09T02:16:03.391Z,97006.44
2023-01-09T02:19:19.031Z,96994.88
2023-01-09T02:25:54.629Z,96974.47
2023-01-09T02:29:31.056Z,96974.31
2023-01-09T02:32:36.770Z,96970.84
2023-01-09T02:36:03.940Z,96968.31
2023-01-09T02:39:12.080Z,96968.53
2023-01-09T02:42:19.242Z,96967.97
2023-01-09T02:45:21.585Z,96963.13
2023-01-09T02:48:24.080Z,96958.78
2023-01-09T02:51:44.689Z,96954.16
2023-01-09T02:54:52.178Z,96946.19
2023-01-09T02:58:17.569Z,96947.53
2023-01-09T03:01:33.398Z,96943.94
2023-01-09T03:04:53.748Z,96942.84
2023-01-09T03:08:02.928Z,96943.50
2023-01-09T03:11:07.831Z,96941.44
2023-01-09T03:14:15.713Z,96939.47
2023-01-09T03:17:38.965Z,96946.34
2023-01-09T03:20:42.566Z,96941.66
2023-01-09T03:23:54.885Z,96933.38
2023-01-09T03:26:57.419Z,96926.53
2023-01-09T03:29:59.948Z,96924.59
2023-01-09T03:33:02.688Z,96911.47
2023-01-09T03:36:05.381Z,96904.34
2023-01-09T03:39:07.886Z,96908.72
2023-01-09T03:42:10.355Z,96911.78
2023-01-09T03:45:13.081Z,96906.28
2023-01-09T03:48:15.539Z,96900.59
2023-01-09T03:51:18.033Z,96906.19
2023-01-09T03:54:20.563Z,96905.00
2023-01-09T03:57:24.402Z,96912.22
2023-01-09T04:00:26.975Z,96908.56
2023-01-09T04:03:29.638Z,96910.38
2023-01-09T04:06:32.193Z,96916.16
2023-01-09T04:09:34.734Z,96917.72
2023-01-09T04:12:37.252Z,96912.81
2023-01-09T04:15:39.863Z,96909.97
2023-01-09T04:18:42.422Z,96907.13
2023-01-09T04:21:44.893Z,96908.50
2023-01-09T04:24:47.388Z,96910.66
2023-01-09T04:27:49.907Z,96906.38
2023-01-09T04:30:52.444Z,96913.56
2023-01-09T04:33:54.953Z,96909.94
2023-01-09T04:36:57.691Z,96917.28
2023-01-09T04:40:00.158Z,96918.69
2023-01-09T04:43:02.662Z,96917.22
2023-01-09T04:46:05.372Z,96911.03
2023-01-09T04:49:08.005Z,96909.19
2023-01-09T04:52:10.647Z,96911.88
2023-01-09T04:55:13.203Z,96911.19
2023-01-09T04:58:15.733Z,96905.97
2023-01-09T05:01:18.418Z,96905.69
2023-01-09T05:04:21.097Z,96901.88
2023-01-09T05:07:23.658Z,96902.91
2023-01-09T05:10:26.201Z,96894.38
2023-01-09T05:13:28.727Z,96889.44
2023-01-09T05:16:32.208Z,96892.25
2023-01-09T05:19:34.843Z,96890.84
2023-01-09T05:22:37.373Z,96887.75
2023-01-09T05:25:39.853Z,96880.63
2023-01-09T05:28:42.399Z,96879.03
2023-01-09T05:31:44.966Z,96873.81
2023-01-09T05:34:47.587Z,96871.22
2023-01-09T05:37:50.116Z,96869.97
2023-01-09T05:40:52.742Z,96877.78
2023-01-09T05:43:55.289Z,96881.41
2023-01-09T05:46:57.839Z,96876.84
2023-01-09T05:50:00.456Z,96873.50
2023-01-09T05:53:03.165Z,96869.09
2023-01-09T05:56:05.958Z,96870.41
2023-01-09T05:59:08.616Z,96865.38
2023-01-09T06:02:11.371Z,96869.47
2023-01-09T06:05:14.091Z,96861.19
2023-01-09T06:08:16.599Z,96860.72
2023-01-09T06:11:19.099Z,96859.25
2023-01-09T06:14:23.894Z,96861.69
2023-01-09T06:17:26.405Z,96859.81
2023-01-09T06:20:29.061Z,96846.38
2023-01-09T06:23:31.624Z,96846.03
2023-01-09T06:26:34.308Z,96853.22
2023-01-09T06:29:36.829Z,96844.41
2023-01-09T06:32:39.365Z,96836.56
2023-01-09T06:35:41.853Z,96833.16
2023-01-09T06:38:44.436Z,96830.53
2023-01-09T06:41:48.701Z,96838.88
2023-01-09T06:44:51.374Z,96831.72
2023-01-09T06:47:54.091Z,96832.53
2023-01-09T06:50:56.626Z,96832.16
2023-01-09T06:53:59.119Z,96832.84
2023-01-09T06:57:01.917Z,96831.16
2023-01-09T07:00:05.073Z,96832.16
2023-01-09T07:03:08.001Z,96838.88
2023-01-09T07:06:10.590Z,96830.47
2023-01-09T07:09:13.662Z,96839.84
2023-01-09T07:12:16.255Z,96838.38
2023-01-09T07:15:19.009Z,96834.28
2023-01-09T07:18:21.574Z,96827.75
2023-01-09T07:21:24.116Z,96827.22
2023-01-09T07:24:26.684Z,96827.44
2023-01-09T07:27:29.238Z,96820.25
2023-01-09T07:30:33.616Z,96831.72
2023-01-09T07:33:36.180Z,96835.28
2023-01-09T07:36:38.687Z,96839.06
2023-01-09T07:39:41.228Z,96830.09
2023-01-09T07:42:43.836Z,96832.22
2023-01-09T07:45:46.753Z,96837.25
2023-01-09T07:48:52.356Z,96831.72
2023-01-09T07:51:57.315Z,96834.34
2023-01-09T07:54:59.861Z,96834.66
2023-01-09T07:58:02.416Z,96836.63
2023-01-09T08:01:05.231Z,96838.44
2023-01-09T08:04:07.948Z,96840.56
2023-01-09T08:07:10.565Z,96843.16
2023-01-09T08:10:13.411Z,96845.78
2023-01-09T08:13:16.028Z,96836.50
2023-01-09T08:16:18.821Z,96838.13
2023-01-09T08:19:21.574Z,96851.81
2023-01-09T08:22:24.752Z,96845.16
2023-01-09T08:25:27.637Z,96840.53
2023-01-09T08:28:30.167Z,96844.97
2023-01-09T08:31:32.887Z,96837.94
2023-01-09T08:34:35.975Z,96839.88
2023-01-09T08:37:38.673Z,96835.97
2023-01-09T08:40:41.358Z,96840.75
2023-01-09T08:44:02.506Z,96844.53
2023-01-09T08:47:08.160Z,96840.88
2023-01-09T08:50:10.839Z,96835.16
2023-01-09T08:53:13.890Z,96834.72
2023-01-09T08:56:16.530Z,96838.81
2023-01-09T08:59:19.274Z,96840.28
2023-01-09T09:02:22.198Z,96837.88
2023-01-09T09:05:26.179Z,96831.78
2023-01-09T09:08:28.961Z,96836.56
2023-01-09T09:11:31.558Z,96840.63
2023-01-09T09:14:52.859Z,96839.00
2023-01-09T09:18:03.966Z,96843.53
2023-01-09T09:21:06.562Z,96837.56
2023-01-09T09:24:09.297Z,96836.44
2023-01-09T09:27:11.887Z,96846.88
2023-01-09T09:30:16.263Z,96839.69
2023-01-09T09:33:18.822Z,96834.13
2023-01-09T09:36:21.458Z,96832.53
2023-01-09T09:39:23.959Z,96830.09
2023-01-09T09:43:07.602Z,96820.75
2023-01-09T09:46:22.185Z,96816.97
2023-01-09T09:49:27.610Z,96816.81
2023-01-09T09:52:47.342Z,96811.28
2023-01-09T09:55:50.270Z,96806.41
2023-01-09T09:59:11.257Z,96786.81
2023-01-09T10:02:31.383Z,96784.53
2023-01-09T10:05:37.219Z,96784.56
2023-01-09T10:08:48.803Z,96784.38
2023-01-09T10:12:11.047Z,96781.94
2023-01-09T10:15:19.530Z,96782.44
2023-01-09T10:18:33.012Z,96788.50
2023-01-09T10:21:44.646Z,96783.41
2023-01-09T10:24:51.110Z,96786.50
2023-01-09T10:27:59.692Z,96781.31
2023-01-09T10:31:11.767Z,96781.44
2023-01-09T10:34:22.536Z,96779.03
2023-01-09T10:37:29.716Z,96774.47
2023-01-09T10:40:40.318Z,96771.53
2023-01-09T10:43:47.067Z,96781.31
2023-01-09T10:46:54.023Z,96783.09
2023-01-09T10:49:57.341Z,96766.13
2023-01-09T10:53:02.468Z,96768.22
2023-01-09T10:56:15.675Z,96774.94
2023-01-09T10:59:18.218Z,96758.44
2023-01-09T11:02:32.527Z,96769.22
2023-01-09T11:05:36.994Z,96781.47
2023-01-09T11:08:42.320Z,96770.53
2023-01-09T11:11:45.662Z,96773.31
2023-01-09T11:14:48.256Z,96781.31
2023-01-09T11:17:51.923Z,96773.81
2023-01-09T11:20:54.675Z,96774.78
2023-01-09T11:24:01.029Z,96769.88
2023-01-09T11:27:12.869Z,96773.81
2023-01-09T11:30:24.309Z,96777.56
2023-01-09T11:33:30.540Z,96772.66
2023-01-09T11:36:33.362Z,96770.69
2023-01-09T11:39:41.526Z,96763.97
2023-01-09T11:43:02.158Z,96753.53
2023-01-09T11:46:07.136Z,96751.88
2023-01-09T11:49:15.538Z,96745.03
2023-01-09T11:52:20.761Z,96746.97
2023-01-09T11:55:29.249Z,96740.09
2023-01-09T11:58:34.295Z,96742.38
2023-01-09T12:01:42.664Z,96738.47
2023-01-09T12:04:54.496Z,96735.53
2023-01-09T12:08:07.099Z,96739.44
2023-01-09T12:11:12.808Z,96735.19
2023-01-09T12:14:15.318Z,96728.31
2023-01-09T12:17:27.014Z,96739.09
2023-01-09T12:20:41.817Z,96745.66
2023-01-09T12:24:09.277Z,96748.56
2023-01-09T12:27:19.613Z,96760.84
2023-01-09T12:30:34.392Z,96771.47
2023-01-09T12:33:55.199Z,96773.44
2023-01-09T12:37:25.481Z,96776.38
2023-01-09T12:40:28.006Z,96761.97
2023-01-09T12:43:33.656Z,96755.44
2023-01-09T12:47:04.875Z,96756.94
2023-01-09T12:50:20.097Z,96750.28
2023-01-09T12:53:50.094Z,96746.66
2023-01-09T12:56:58.659Z,96744.69
2023-01-09T13:00:15.484Z,96731.00
2023-01-09T13:03:21.477Z,96743.91
2023-01-09T13:06:24.776Z,96739.34
2023-01-09T13:09:33.415Z,96748.31
2023-01-09T13:12:39.932Z,96761.69
2023-01-09T13:15:45.371Z,96751.56
2023-01-09T13:18:59.917Z,96755.00
2023-01-09T13:22:04.454Z,96758.44
2023-01-09T13:25:16.340Z,96767.88
2023-01-09T13:28:22.310Z,96764.97
2023-01-09T13:31:38.155Z,96758.75
2023-01-09T13:34:41.801Z,96763.34
2023-01-09T13:37:53.385Z,96769.22
2023-01-09T13:41:27.111Z,96773.44
2023-01-09T13:44:29.782Z,96781.13
2023-01-09T13:47:32.539Z,96769.22
2023-01-09T13:50:35.803Z,96771.50
2023-01-09T13:53:41.103Z,96780.97
2023-01-09T13:57:17.194Z,96788.81
2023-01-09T14:00:19.769Z,96793.38
2023-01-09T14:03:34.140Z,96801.56
2023-01-09T14:06:36.998Z,96796.34
2023-01-09T14:09:47.184Z,96799.25
2023-01-09T14:12:51.442Z,96798.94
2023-01-09T14:16:07.401Z,96793.53
2023-01-09T14:19:15.909Z,96799.25
2023-01-09T14:22:31.528Z,96786.19
2023-01-09T14:25:34.463Z,96791.38
2023-01-09T14:28:37.225Z,96794.94
2023-01-09T14:31:39.843Z,96805.38
2023-01-09T14:34:42.904Z,96797.22
2023-01-09T14:38:02.779Z,96802.41
2023-01-09T14:41:53.860Z,96797.19
2023-01-09T14:44:56.828Z,96792.28
2023-01-09T14:48:04.870Z,96796.63
2023-01-09T14:51:13.109Z,96794.69
2023-01-09T14:54:27.967Z,96801.34
2023-01-09T14:57:34.212Z,96806.56
2023-01-09T15:00:37.047Z,96813.72
2023-01-09T15:03:52.412Z,96820.06
2023-01-09T15:06:55.243Z,96831.03
2023-01-09T15:10:02.081Z,96830.28
2023-01-09T15:13:07.417Z,96831.34
2023-01-09T15:16:18.803Z,96830.16
2023-01-09T15:19:21.661Z,96836.00
2023-01-09T15:22:35.018Z,96837.31
2023-01-09T15:25:40.302Z,96829.50
2023-01-09T15:28:44.168Z,96832.16
2023-01-09T15:32:04.298Z,96834.41
2023-01-09T15:35:14.052Z,96837.50
2023-01-09T15:38:19.871Z,96852.41
2023-01-09T15:41:46.373Z,96855.66
2023-01-09T15:44:50.359Z,96842.63
2023-01-09T15:47:53.525Z,96852.63
2023-01-09T15:51:03.775Z,96857.84
2023-01-09T15:54:06.493Z,96849.34
2023-01-09T15:57:34.383Z,96858.44
2023-01-09T16:00:39.664Z,96851.69
2023-01-09T16:03:42.414Z,96854.31
2023-01-09T16:06:48.339Z,96848.28
2023-01-09T16:09:54.164Z,96855.22
2023-01-09T16:12:57.057Z,96851.28
2023-01-09T16:16:01.113Z,96854.25
2023-01-09T16:19:03.958Z,96856.06
2023-01-09T16:22:32.008Z,96858.31
2023-01-09T16:25:35.429Z,96849.31
2023-01-09T16:28:41.162Z,96856.97
2023-01-09T16:31:43.985Z,96854.09
2023-01-09T16:34:51.624Z,96855.63
2023-01-09T16:37:54.571Z,96857.47
2023-01-09T16:41:27.776Z,96862.69
2023-01-09T16:44:30.667Z,96863.97
2023-01-09T16:47:33.660Z,96864.53
2023-01-09T16:50:36.374Z,96862.09
2023-01-09T16:53:38.990Z,96861.88
2023-01-09T16:56:43.599Z,96853.91
2023-01-09T16:59:46.609Z,96850.88
2023-01-09T17:02:49.688Z,96847.28
2023-01-09T17:05:57.663Z,96854.44
2023-01-09T17:09:00.325Z,96856.09
2023-01-09T17:12:03.183Z,96860.97
2023-01-09T17:15:06.348Z,96852.56
2023-01-09T17:18:28.279Z,96849.22
2023-01-09T17:21:31.840Z,96857.19
2023-01-09T17:24:53.671Z,96851.47
2023-01-09T17:28:14.713Z,96852.50
2023-01-09T17:31:17.804Z,96857.25
2023-01-09T17:34:21.008Z,96851.53
2023-01-09T17:37:24.145Z,96854.28
2023-01-09T17:40:28.896Z,96852.78
2023-01-09T17:43:33.204Z,96852.13
2023-01-09T17:46:38.842Z,96848.16
2023-01-09T17:49:42.660Z,96844.22
2023-01-09T17:52:46.062Z,96854.25
2023-01-09T17:55:49.078Z,96857.53
2023-01-09T17:58:51.901Z,96857.25
2023-01-09T18:01:54.880Z,96856.97
2023-01-09T18:04:58.052Z,96852.13
2023-01-09T18:08:00.964Z,96858.34
2023-01-09T18:11:08.009Z,96860.38
2023-01-09T18:14:13.522Z,96864.09
2023-01-09T18:17:16.633Z,96868.84
2023-01-09T18:20:22.839Z,96853.38
2023-01-09T18:23:26.918Z,96858.28
2023-01-09T18:26:29.912Z,96866.00
2023-01-09T18:29:33.050Z,96853.00
2023-01-09T18:32:38.335Z,96859.16
2023-01-09T18:35:42.634Z,96862.81
2023-01-09T18:38:46.032Z,96864.13
2023-01-09T18:41:48.798Z,96861.13
2023-01-09T18:44:51.745Z,96856.03
2023-01-09T18:47:54.477Z,96852.91
2023-01-09T18:51:05.388Z,96853.03
2023-01-09T18:54:08.699Z,96854.19
2023-01-09T18:57:11.877Z,96855.22
2023-01-09T19:00:15.481Z,96856.78
2023-01-09T19:03:18.283Z,96852.91
2023-01-09T19:06:21.225Z,96854.84
2023-01-09T19:09:24.109Z,96852.91
2023-01-09T19:12:26.833Z,96855.41
2023-01-09T19:15:30.079Z,96856.09
2023-01-09T19:18:35.984Z,96853.69
2023-01-09T19:21:38.887Z,96853.03
2023-01-09T19:24:41.953Z,96854.66
2023-01-09T19:27:45.743Z,96854.81
2023-01-09T19:30:56.390Z,96859.72
2023-01-09T19:33:59.448Z,96871.53
2023-01-09T19:37:02.463Z,96864.41
2023-01-09T19:40:05.571Z,96862.75
2023-01-09T19:43:08.301Z,96863.13
2023-01-09T19:46:13.754Z,96858.22
2023-01-09T19:49:17.047Z,96866.19
2023-01-09T19:52:19.637Z,96868.91
2023-01-09T19:55:22.791Z,96871.16
2023-01-09T19:58:27.839Z,96867.16
2023-01-09T20:01:36.681Z,96869.50
2023-01-09T20:04:39.513Z,96866.22
2023-01-09T20:07:42.267Z,96871.16
2023-01-09T20:10:45.027Z,96871.56
2023-01-09T20:13:48.040Z,96867.03
2023-01-09T20:16:54.222Z,96868.16
2023-01-09T20:19:57.185Z,96877.22
2023-01-09T20:23:00.455Z,96878.03
2023-01-09T20:26:03.808Z,96884.84
2023-01-09T20:29:09.089Z,96881.44
2023-01-09T20:32:12.110Z,96878.84
2023-01-09T20:35:15.018Z,96883.22
2023-01-09T20:38:17.669Z,96873.34
2023-01-09T20:41:23.702Z,96878.03
2023-01-09T20:44:26.303Z,96875.94
2023-01-09T20:47:29.198Z,96870.31
2023-01-09T20:50:33.315Z,96874.44
2023-01-09T20:53:36.764Z,96876.06
2023-01-09T20:56:39.725Z,96876.91
2023-01-09T20:59:42.322Z,96861.44
2023-01-09T21:02:45.061Z,96869.13
2023-01-09T21:05:47.888Z,96877.56
2023-01-09T21:08:53.202Z,96866.50
2023-01-09T21:11:55.944Z,96874.03
2023-01-09T21:15:02.548Z,96865.25
2023-01-09T21:18:05.381Z,96864.28
2023-01-09T21:21:13.721Z,96866.50
2023-01-09T21:24:16.393Z,96860.75
2023-01-09T21:27:19.243Z,96857.44
2023-01-09T21:30:22.193Z,96863.19
2023-01-09T21:33:24.849Z,96859.38
2023-01-09T21:36:27.505Z,96864.28
2023-01-09T21:39:30.505Z,96859.09
2023-01-09T21:42:51.938Z,96851.56
2023-01-09T21:46:13.260Z,96863.47
2023-01-09T21:49:15.973Z,96867.84
2023-01-09T21:52:18.828Z,96867.03
2023-01-09T21:55:21.514Z,96867.16
2023-01-09T21:58:24.093Z,96879.06
2023-01-09T22:01:26.747Z,96873.63
2023-01-09T22:04:29.833Z,96887.03
2023-01-09T22:07:32.424Z,96875.50
2023-01-09T22:10:35.221Z,96881.25
2023-01-09T22:13:37.851Z,96883.75
2023-01-09T22:16:41.689Z,96885.53
2023-01-09T22:19:44.406Z,96877.00
2023-01-09T22:22:48.797Z,96890.19
2023-01-09T22:25:51.566Z,96871.56
2023-01-09T22:28:55.940Z,96883.47
2023-01-09T22:31:58.528Z,96875.38
2023-01-09T22:35:01.130Z,96875.78
2023-01-09T22:38:04.728Z,96879.06
2023-01-09T22:41:07.502Z,96880.19
2023-01-09T22:44:11.594Z,96881.56
2023-01-09T22:47:17.088Z,96881.69
2023-01-09T22:50:20.104Z,96885.63
2023-01-09T22:53:22.657Z,96885.63
2023-01-09T22:56:25.263Z,96887.13
2023-01-09T22:59:27.770Z,96882.91
2023-01-09T23:02:30.402Z,96881.78
2023-01-09T23:05:33.001Z,96876.34
2023-01-09T23:08:35.742Z,96890.25
2023-01-09T23:11:57.150Z,96896.03
2023-01-09T23:15:00.420Z,96904.97
2023-01-09T23:18:03.098Z,96905.78
2023-01-09T23:21:05.630Z,96904.00
2023-01-09T23:24:08.625Z,96899.44
2023-01-09T23:27:11.206Z,96909.78
2023-01-09T23:30:14.119Z,96907.69
2023-01-09T23:33:21.376Z,96911.97
2023-01-09T23:36:23.932Z,96905.94
2023-01-09T23:39:26.480Z,96909.97
2023-01-09T23:42:47.716Z,96901.75
2023-01-09T23:45:51.468Z,96906.41
2023-01-09T23:48:54.013Z,96916.13
2023-01-09T23:51:56.713Z,96915.31
2023-01-09T23:54:59.397Z,96914.50
2023-01-09T23:58:01.910Z,96907.41
